Hauptseite
METAR-TAF:

METAR-TAF

Flughäfen :

Pittsburgh, Pennsylvania, Vereinigte Staaten

Pittsburgh International Airport

Breite: 40-30-14N, Länge: 080-15-59W, Höhe: 366 m

Beobachtung

Neuester Wetterbericht von vor 1 Stunde und 4 Minuten, um 07:51 UTC
Windstille
Temperatur 11°C
Luftfeuchtigkeit 87%
Luftdruck 1020 hPa
Sichtweite: 16.1 km
Himmel klar

METAR: KPIT 280751Z 00000KT 10SM CLR 11/09 A3013 RMK AO2 SLP207 T01060089

Zeit: 04:55 (08:55 UTC)

Prognose

Neuester Wetterbericht von vor 3 Stunden und 35 Minuten, um 05:20 UTC
Gültige Prognose vom 28 um 06 UTC bis 29 um 12 UTC
Wind 6 kt aus Südwest
Sichtweite: 10 km
Himmel klar
Ab 29 um 0300 UTC
Wind kt aus Nord
Sichtweite: 10 km
Aufgelockert bewölkt in der Höhe von 25000 ft

TAF: KPIT 280520Z 2806/2912 22006KT P6SM SKC FM290300 00000KT P6SM SCT250

Wetterbeobachtungen und Prognosen von mehr als 4000 Flughäfen (METAR und TAF Bericht).

Die verfügbaren Stationen werden durch gelbe und rote Markierungen auf der Karte dargestellt.

Führen Sie die Maus auf sie, um den Namen der Station zu sehen.

Darauf klicken, um die Beobachtung von Wetterbeobachtungen und Prognosen zu sehen.

Um die Karte zu ändern : klicken Sie auf den grünen Tasten mit einem schwarzen Kreuz Zum Vergrößern, auf den grünen Button mit einem Gedankenstrich zu verkleinern, oder auf die grünen Pfeile für benachbarte Karten.


METAR-TAF: